Time;durP1;ratioP1;P1;durP2;ratioP2;P2;SDS_P1;SDS_P2;PMS_P1;PMS_P2;Temp;Humidity;BMP_temperature;BMP_pressure;BME280_temperature;BME280_humidity;BME280_pressure;Samples;Min_cycle;Max_cycle;Signal;HPM_P1;HPM_P2
2023/11/09 00:00:30;;;;;;;;;;;;;;;7.21;100.00;99838.09;5028299;28;19921;-86
2023/11/09 00:03:02;;;;;;;;;;;;;;;7.30;100.00;99843.72;4989879;28;20365;-89
2023/11/09 00:05:30;;;;;;;;;;;;;;;7.30;100.00;99847.22;5028412;28;20300;-86
2023/11/09 00:07:59;;;;;;;;;;;;;;;7.35;100.00;99848.28;5028241;28;19921;-86
2023/11/09 00:10:27;;;;;;;;;;;;;;;7.35;100.00;99849.09;5005117;28;19925;-87
2023/11/09 00:12:58;;;;;;;;;;;;;;;7.31;100.00;99835.31;5028587;28;19921;-88
2023/11/09 00:15:27;;;;;;;;;;;;;;;7.28;100.00;99838.59;5012230;28;20281;-86
2023/11/09 00:17:56;;;;;;;;;;;;;;;7.34;100.00;99838.56;5013955;28;19928;-84
2023/11/09 00:20:25;;;;;;;;;;;;;;;7.33;100.00;99840.44;5037001;28;19928;-86
2023/11/09 00:22:53;;;;;;;;;;;;;;;7.36;100.00;99830.97;5027230;28;19926;-87
2023/11/09 00:25:24;;;;;;;;;;;;;;;7.36;100.00;99842.63;5013735;28;20307;-86
2023/11/09 00:27:52;;;;;;;;;;;;;;;7.35;100.00;99821.22;5013869;28;19936;-87
2023/11/09 00:30:20;;;;;;;;;;;;;;;7.26;100.00;99827.22;4996386;28;19921;-86
2023/11/09 00:32:48;;;;;;;;;;;;;;;7.25;100.00;99817.50;5012267;28;19921;-87
2023/11/09 00:35:19;;;;;;;;;;;;;;;7.30;100.00;99813.94;5004283;28;19921;-86
2023/11/09 00:37:53;;;;;;;;;;;;;;;7.28;100.00;99810.72;5034070;28;19921;-86
2023/11/09 00:40:22;;;;;;;;;;;;;;;7.28;100.00;99799.91;5032708;28;19922;-87
2023/11/09 00:42:52;;;;;;;;;;;;;;;7.30;100.00;99809.31;5028163;28;19922;-87
2023/11/09 00:45:20;;;;;;;;;;;;;;;7.28;100.00;99797.19;5027779;28;19952;-87
2023/11/09 00:47:48;;;;;;;;;;;;;;;7.31;100.00;99789.31;5026180;28;19926;-87
2023/11/09 00:50:16;;;;;;;;;;;;;;;7.24;100.00;99785.31;5011540;28;19993;-85
2023/11/09 00:52:44;;;;;;;;;;;;;;;7.24;100.00;99780.69;5001378;28;19947;-85
2023/11/09 00:55:13;;;;;;;;;;;;;;;7.30;100.00;99776.84;5018415;28;19937;-87
2023/11/09 00:57:41;;;;;;;;;;;;;;;7.22;100.00;99771.22;5023828;28;20377;-86
2023/11/09 01:00:11;;;;;;;;;;;;;;;7.24;100.00;99767.16;5009403;28;20590;-88
2023/11/09 01:02:39;;;;;;;;;;;;;;;7.25;100.00;99766.06;4995439;28;19922;-86
2023/11/09 01:05:12;;;;;;;;;;;;;;;7.26;100.00;99764.97;5027857;28;20301;-86
2023/11/09 01:07:46;;;;;;;;;;;;;;;7.30;100.00;99767.94;5012865;28;19928;-86
2023/11/09 01:10:14;;;;;;;;;;;;;;;7.33;100.00;99764.66;4992224;28;19928;-87
2023/11/09 01:12:43;;;;;;;;;;;;;;;7.34;100.00;99754.66;5022208;28;19921;-85
2023/11/09 01:15:17;;;;;;;;;;;;;;;7.34;100.00;99763.56;5012381;28;19921;-86
2023/11/09 01:18:00;;;;;;;;;;;;;;;7.35;100.00;99753.53;5018766;28;20545;-86
2023/11/09 01:20:29;;;;;;;;;;;;;;;7.38;100.00;99753.81;5019885;28;19932;-87
2023/11/09 01:22:57;;;;;;;;;;;;;;;7.41;100.00;99745.13;5027454;28;19944;-87
2023/11/09 01:25:25;;;;;;;;;;;;;;;7.43;100.00;99745.66;5027698;28;20400;-87
2023/11/09 01:27:53;;;;;;;;;;;;;;;7.48;100.00;99748.34;5011181;28;19928;-83
2023/11/09 01:30:25;;;;;;;;;;;;;;;7.55;100.00;99737.16;5004079;28;19921;-86
2023/11/09 01:32:53;;;;;;;;;;;;;;;7.53;100.00;99735.84;5028036;28;19928;-87
2023/11/09 01:35:21;;;;;;;;;;;;;;;7.53;100.00;99731.22;5010322;28;19921;-84
2023/11/09 01:37:49;;;;;;;;;;;;;;;7.60;100.00;99731.72;5027709;28;19925;-86
2023/11/09 01:40:18;;;;;;;;;;;;;;;7.55;100.00;99722.81;5011884;28;19932;-88
2023/11/09 01:42:46;;;;;;;;;;;;;;;7.54;100.00;99713.06;5013815;28;19921;-87
2023/11/09 01:45:14;;;;;;;;;;;;;;;7.49;100.00;99705.81;5025465;28;20301;-85
2023/11/09 01:47:43;;;;;;;;;;;;;;;7.52;100.00;99710.66;5027524;28;19928;-86
2023/11/09 01:50:12;;;;;;;;;;;;;;;7.53;100.00;99703.38;5032919;28;19921;-86
2023/11/09 01:52:40;;;;;;;;;;;;;;;7.51;100.00;99694.69;5005449;28;19921;-87
2023/11/09 01:55:08;;;;;;;;;;;;;;;7.52;100.00;99696.31;5030413;28;20392;-90
2023/11/09 01:57:37;;;;;;;;;;;;;;;7.58;100.00;99689.75;5009629;28;19921;-85
2023/11/09 02:00:07;;;;;;;;;;;;;;;7.58;100.00;99677.06;5017042;28;19945;-85
2023/11/09 02:02:40;;;;;;;;;;;;;;;7.52;100.00;99677.38;5012991;28;19922;-87
2023/11/09 02:05:10;;;;;;;;;;;;;;;7.61;100.00;99678.34;5012931;28;20286;-88
2023/11/09 02:07:38;;;;;;;;;;;;;;;7.56;100.00;99665.69;5010756;28;19928;-85
2023/11/09 02:10:07;;;;;;;;;;;;;;;7.54;100.00;99677.88;5027406;28;19928;-87
2023/11/09 02:12:36;;;;;;;;;;;;;;;7.53;100.00;99674.38;4995135;28;20293;-87
2023/11/09 02:15:09;;;;;;;;;;;;;;;7.58;100.00;99662.69;5027435;28;19921;-88
2023/11/09 02:17:37;;;;;;;;;;;;;;;7.47;100.00;99662.78;4990406;28;20373;-87
2023/11/09 02:20:06;;;;;;;;;;;;;;;7.47;100.00;99659.25;5024127;28;19928;-88
2023/11/09 02:22:37;;;;;;;;;;;;;;;7.41;100.00;99653.06;5012396;28;20374;-87
2023/11/09 02:25:07;;;;;;;;;;;;;;;7.41;100.00;99647.66;5011075;28;19921;-88
2023/11/09 02:27:35;;;;;;;;;;;;;;;7.43;100.00;99650.09;5029198;28;20286;-85
2023/11/09 02:30:03;;;;;;;;;;;;;;;7.41;100.00;99655.78;5011700;28;19921;-86
2023/11/09 02:32:31;;;;;;;;;;;;;;;7.41;100.00;99646.88;5014729;28;19932;-87
2023/11/09 02:35:05;;;;;;;;;;;;;;;7.42;100.00;99648.50;5031100;28;20388;-86
2023/11/09 02:37:34;;;;;;;;;;;;;;;7.39;100.00;99636.34;5011293;28;19921;-88
2023/11/09 02:40:04;;;;;;;;;;;;;;;7.41;100.00;99638.75;5031767;28;19945;-88
2023/11/09 02:42:33;;;;;;;;;;;;;;;7.44;100.00;99632.75;5030722;28;19932;-87
2023/11/09 02:45:01;;;;;;;;;;;;;;;7.45;100.00;99631.69;5030538;28;20405;-87
2023/11/09 02:47:35;;;;;;;;;;;;;;;7.46;100.00;99625.19;5028522;28;19928;-85
2023/11/09 02:50:04;;;;;;;;;;;;;;;7.44;100.00;99614.63;5014187;28;20369;-88
2023/11/09 02:52:31;;;;;;;;;;;;;;;7.47;100.00;99619.47;5008636;28;19921;-86
2023/11/09 02:55:00;;;;;;;;;;;;;;;7.49;100.00;99616.47;5017941;28;19952;-86
2023/11/09 02:57:29;;;;;;;;;;;;;;;7.54;100.00;99615.59;5013376;28;19928;-86
2023/11/09 02:59:59;;;;;;;;;;;;;;;7.53;100.00;99608.59;5027087;28;19928;-87
2023/11/09 03:02:27;;;;;;;;;;;;;;;7.52;100.00;99609.69;5013379;28;19925;-87
2023/11/09 03:04:55;;;;;;;;;;;;;;;7.52;100.00;99606.97;5008341;28;20704;-85
2023/11/09 03:07:23;;;;;;;;;;;;;;;7.51;100.00;99599.94;5016551;28;20292;-85
2023/11/09 03:09:51;;;;;;;;;;;;;;;7.53;100.00;99597.78;5010736;28;20277;-83
2023/11/09 03:12:24;;;;;;;;;;;;;;;7.51;100.00;99589.13;5028041;28;19936;-82
2023/11/09 03:14:52;;;;;;;;;;;;;;;7.51;100.00;99591.81;5014625;28;19928;-83
2023/11/09 03:17:22;;;;;;;;;;;;;;;7.48;100.00;99585.91;4993742;28;19929;-83
2023/11/09 03:19:55;;;;;;;;;;;;;;;7.50;100.00;99582.91;5014938;28;19922;-84
2023/11/09 03:22:23;;;;;;;;;;;;;;;7.46;100.00;99584.56;5014877;28;19922;-81
2023/11/09 03:24:51;;;;;;;;;;;;;;;7.48;100.00;99583.19;5018694;28;19932;-84
2023/11/09 03:27:19;;;;;;;;;;;;;;;7.46;100.00;99577.25;5032548;28;19921;-85
2023/11/09 03:29:47;;;;;;;;;;;;;;;7.45;100.00;99572.91;5037902;28;19925;-84
2023/11/09 03:32:14;;;;;;;;;;;;;;;7.45;100.00;99572.13;5029772;28;19929;-84
2023/11/09 03:34:50;;;;;;;;;;;;;;;7.41;100.00;99580.00;4999114;28;19988;-84
2023/11/09 03:37:18;;;;;;;;;;;;;;;7.47;100.00;99564.50;5007070;28;19929;-86
2023/11/09 03:39:46;;;;;;;;;;;;;;;7.42;100.00;99565.38;5006882;28;19921;-85
2023/11/09 03:42:15;;;;;;;;;;;;;;;7.43;100.00;99556.16;5013581;28;19929;-84
2023/11/09 03:44:44;;;;;;;;;;;;;;;7.41;100.00;99558.34;5028364;28;19921;-85
2023/11/09 03:47:11;;;;;;;;;;;;;;;7.43;100.00;99552.63;5014238;28;19929;-85
2023/11/09 03:49:40;;;;;;;;;;;;;;;7.45;100.00;99550.47;5029141;28;19921;-84
2023/11/09 03:52:10;;;;;;;;;;;;;;;7.42;100.00;99551.84;4999902;28;19921;-85
2023/11/09 03:54:43;;;;;;;;;;;;;;;7.44;100.00;99543.44;5007711;28;19928;-82
2023/11/09 03:57:11;;;;;;;;;;;;;;;7.42;100.00;99530.19;5029277;28;19921;-84
2023/11/09 03:59:44;;;;;;;;;;;;;;;7.39;100.00;99532.66;5023447;28;20397;-84
2023/11/09 04:02:12;;;;;;;;;;;;;;;7.43;100.00;99536.41;5029476;28;20665;-84
2023/11/09 04:04:40;;;;;;;;;;;;;;;7.40;100.00;99534.28;4995132;28;19929;-83
2023/11/09 04:07:14;;;;;;;;;;;;;;;7.42;100.00;99535.59;5030506;28;20380;-85
2023/11/09 04:09:42;;;;;;;;;;;;;;;7.43;100.00;99530.97;5019926;28;19928;-85
2023/11/09 04:12:11;;;;;;;;;;;;;;;7.44;100.00;99516.38;5030729;28;19925;-84
2023/11/09 04:14:39;;;;;;;;;;;;;;;7.43;100.00;99520.97;5012153;28;19928;-85
2023/11/09 04:17:07;;;;;;;;;;;;;;;7.45;100.00;99520.69;5012063;28;19933;-84
2023/11/09 04:19:40;;;;;;;;;;;;;;;7.44;100.00;99516.38;5027980;28;19928;-84
2023/11/09 04:22:08;;;;;;;;;;;;;;;7.46;100.00;99517.69;5031289;28;20453;-85
2023/11/09 04:24:38;;;;;;;;;;;;;;;7.47;100.00;99513.06;4993914;28;19928;-83
2023/11/09 04:27:05;;;;;;;;;;;;;;;7.44;100.00;99511.78;4984461;28;20293;-84
2023/11/09 04:29:34;;;;;;;;;;;;;;;7.45;100.00;99517.97;5032115;28;20313;-84
2023/11/09 04:32:08;;;;;;;;;;;;;;;7.47;100.00;99511.19;5019759;28;20392;-84
2023/11/09 04:34:45;;;;;;;;;;;;;;;7.49;100.00;99506.28;5013797;28;19926;-86
2023/11/09 04:37:13;;;;;;;;;;;;;;;7.45;100.00;99507.16;4982718;28;19936;-84
2023/11/09 04:39:57;;;;;;;;;;;;;;;7.44;100.00;99502.81;5014481;28;19925;-83
2023/11/09 04:42:29;;;;;;;;;;;;;;;7.48;100.00;99507.41;5026856;28;19925;-84
2023/11/09 04:44:57;;;;;;;;;;;;;;;7.52;100.00;99502.19;5013451;28;20282;-84
2023/11/09 04:47:27;;;;;;;;;;;;;;;7.49;100.00;99502.78;5025045;28;19946;-84
2023/11/09 04:50:00;;;;;;;;;;;;;;;7.48;100.00;99491.16;5013246;28;20400;-82
2023/11/09 04:52:33;;;;;;;;;;;;;;;7.49;100.00;99489.25;5009155;28;19929;-84
2023/11/09 04:55:12;;;;;;;;;;;;;;;7.53;100.00;99482.16;4995166;28;19921;-83
2023/11/09 05:08:59;;;;;;;;;;;;;;;7.52;100.00;99483.25;4981200;28;20581;-83
2023/11/09 05:11:28;;;;;;;;;;;;;;;7.49;100.00;99481.13;5016882;28;19944;-84
2023/11/09 05:14:01;;;;;;;;;;;;;;;7.51;100.00;99484.34;5011391;28;19922;-84
2023/11/09 05:16:29;;;;;;;;;;;;;;;7.50;100.00;99474.63;5012189;28;19929;-83
2023/11/09 05:19:03;;;;;;;;;;;;;;;7.53;100.00;99473.25;5001024;28;19921;-83
2023/11/09 05:21:37;;;;;;;;;;;;;;;7.56;100.00;99472.66;5011399;28;20297;-83
2023/11/09 05:24:05;;;;;;;;;;;;;;;7.53;100.00;99465.13;5027756;28;19922;-83
2023/11/09 05:26:36;;;;;;;;;;;;;;;7.53;100.00;99463.22;5012280;28;19940;-83
2023/11/09 05:29:09;;;;;;;;;;;;;;;7.52;100.00;99458.88;5028208;28;19944;-83
2023/11/09 05:31:38;;;;;;;;;;;;;;;7.54;100.00;99455.88;5028403;28;19921;-82
2023/11/09 05:34:07;;;;;;;;;;;;;;;7.54;100.00;99458.59;5028018;28;19928;-84
2023/11/09 05:36:35;;;;;;;;;;;;;;;7.52;100.00;99448.06;5011200;28;20019;-83
2023/11/09 05:39:04;;;;;;;;;;;;;;;7.52;100.00;99450.75;5021921;28;19933;-82
2023/11/09 05:41:32;;;;;;;;;;;;;;;7.49;100.00;99444.03;5025441;28;20305;-83
2023/11/09 05:44:02;;;;;;;;;;;;;;;7.52;100.00;99439.13;5009305;28;19925;-84
2023/11/09 05:46:36;;;;;;;;;;;;;;;7.55;100.00;99435.84;5002968;28;19921;-83
2023/11/09 05:49:09;;;;;;;;;;;;;;;7.54;100.00;99436.94;5027200;28;19921;-84
2023/11/09 05:51:39;;;;;;;;;;;;;;;7.54;100.00;99442.34;4990366;28;19921;-82
2023/11/09 05:54:08;;;;;;;;;;;;;;;7.55;100.00;99438.53;5011862;28;19932;-82
2023/11/09 05:56:36;;;;;;;;;;;;;;;7.57;100.00;99431.75;5024550;28;19921;-82
2023/11/09 05:59:05;;;;;;;;;;;;;;;7.56;100.00;99440.97;5019015;28;19928;-83
2023/11/09 06:01:35;;;;;;;;;;;;;;;7.52;100.00;99437.22;5007604;28;19926;-83
2023/11/09 06:04:03;;;;;;;;;;;;;;;7.54;100.00;99439.63;5014672;28;19925;-82
2023/11/09 06:06:32;;;;;;;;;;;;;;;7.54;100.00;99440.47;5031548;28;19926;-86
2023/11/09 06:09:01;;;;;;;;;;;;;;;7.55;100.00;99433.94;5016237;28;19925;-82
2023/11/09 06:11:34;;;;;;;;;;;;;;;7.52;100.00;99429.09;5019669;28;19928;-83
2023/11/09 06:14:10;;;;;;;;;;;;;;;7.53;100.00;99433.44;5008685;28;20290;-83
2023/11/09 06:16:43;;;;;;;;;;;;;;;7.53;100.00;99429.94;5032374;28;20113;-82
2023/11/09 06:19:13;;;;;;;;;;;;;;;7.54;100.00;99423.41;5023003;28;19928;-83
2023/11/09 06:21:41;;;;;;;;;;;;;;;7.54;100.00;99424.22;5029389;28;19921;-82
2023/11/09 06:24:09;;;;;;;;;;;;;;;7.52;100.00;99431.00;5026888;28;19921;-81
2023/11/09 06:26:37;;;;;;;;;;;;;;;7.55;100.00;99428.50;5041288;28;19922;-82
2023/11/09 06:29:05;;;;;;;;;;;;;;;7.53;100.00;99432.63;5027617;28;19936;-84
2023/11/09 06:31:34;;;;;;;;;;;;;;;7.54;100.00;99426.94;5025680;28;19936;-81
2023/11/09 06:34:02;;;;;;;;;;;;;;;7.53;100.00;99428.00;5032856;28;19921;-83
2023/11/09 06:36:31;;;;;;;;;;;;;;;7.51;100.00;99416.66;4995820;28;19932;-82
2023/11/09 06:38:59;;;;;;;;;;;;;;;7.54;100.00;99413.38;5029813;28;20029;-83
2023/11/09 06:41:28;;;;;;;;;;;;;;;7.49;100.00;99408.03;5012107;28;19928;-82
2023/11/09 06:44:01;;;;;;;;;;;;;;;7.52;100.00;99409.34;5029024;28;19925;-83
2023/11/09 06:46:37;;;;;;;;;;;;;;;7.53;100.00;99409.06;5030165;28;19925;-84
2023/11/09 06:49:11;;;;;;;;;;;;;;;7.54;100.00;99404.44;5012035;28;20294;-82
2023/11/09 06:51:39;;;;;;;;;;;;;;;7.53;100.00;99416.38;4997812;28;19921;-82
2023/11/09 06:54:07;;;;;;;;;;;;;;;7.54;100.00;99424.22;5010356;28;20009;-83
2023/11/09 06:56:37;;;;;;;;;;;;;;;7.47;100.00;99421.03;5013723;28;19922;-81
2023/11/09 06:59:05;;;;;;;;;;;;;;;7.54;100.00;99418.81;5015067;28;19925;-82
2023/11/09 07:01:34;;;;;;;;;;;;;;;7.49;100.00;99416.16;5028996;28;19921;-83
2023/11/09 07:04:04;;;;;;;;;;;;;;;7.46;100.00;99409.41;5016985;28;19988;-82
2023/11/09 07:06:32;;;;;;;;;;;;;;;7.48;100.00;99409.94;5010722;28;20300;-82
2023/11/09 07:09:05;;;;;;;;;;;;;;;7.47;100.00;99400.19;5029877;28;19933;-82
2023/11/09 07:11:38;;;;;;;;;;;;;;;7.50;100.00;99404.22;5013252;28;19925;-83
2023/11/09 07:14:11;;;;;;;;;;;;;;;7.45;100.00;99404.28;5008562;28;20675;-83
2023/11/09 07:16:45;;;;;;;;;;;;;;;7.48;100.00;99412.66;4983785;28;19921;-83
2023/11/09 07:19:15;;;;;;;;;;;;;;;7.53;100.00;99405.56;5013602;28;19921;-83
2023/11/09 07:21:43;;;;;;;;;;;;;;;7.48;100.00;99407.25;5009183;28;19929;-84
2023/11/09 07:24:17;;;;;;;;;;;;;;;7.54;100.00;99401.72;5016729;28;19932;-85
2023/11/09 07:26:46;;;;;;;;;;;;;;;7.50;100.00;99393.41;5009708;28;19925;-83
2023/11/09 07:29:13;;;;;;;;;;;;;;;7.54;100.00;99399.84;5026269;28;19921;-83
2023/11/09 07:31:42;;;;;;;;;;;;;;;7.51;100.00;99400.41;5008523;28;19944;-83
2023/11/09 07:34:10;;;;;;;;;;;;;;;7.58;100.00;99402.75;5006271;28;19928;-83
2023/11/09 07:36:44;;;;;;;;;;;;;;;7.52;100.00;99398.53;5022538;28;19928;-83
2023/11/09 07:39:12;;;;;;;;;;;;;;;7.53;100.00;99397.44;5010755;28;19921;-81
2023/11/09 07:41:45;;;;;;;;;;;;;;;7.48;100.00;99403.69;5010340;28;19925;-82
2023/11/09 07:44:13;;;;;;;;;;;;;;;7.51;100.00;99395.00;5019548;28;20293;-83
2023/11/09 07:46:46;;;;;;;;;;;;;;;7.52;100.00;99407.44;5011822;28;19926;-84
2023/11/09 07:49:14;;;;;;;;;;;;;;;7.52;100.00;99404.72;4981253;28;19922;-83
2023/11/09 07:51:44;;;;;;;;;;;;;;;7.49;100.00;99392.59;5013477;28;19937;-84
2023/11/09 07:54:19;;;;;;;;;;;;;;;7.53;100.00;99397.44;5008745;28;19933;-84
2023/11/09 07:56:47;;;;;;;;;;;;;;;7.51;100.00;99396.91;5009448;28;19936;-83
2023/11/09 07:59:15;;;;;;;;;;;;;;;7.54;100.00;99394.44;5011001;28;20309;-83
2023/11/09 08:01:49;;;;;;;;;;;;;;;7.53;100.00;99394.72;5012099;28;19922;-83
2023/11/09 08:04:18;;;;;;;;;;;;;;;7.52;100.00;99403.94;5012000;28;19926;-84
2023/11/09 08:06:47;;;;;;;;;;;;;;;7.49;100.00;99395.28;5018461;28;19928;-83
2023/11/09 08:09:21;;;;;;;;;;;;;;;7.53;100.00;99400.16;4986049;28;19940;-86
2023/11/09 08:11:49;;;;;;;;;;;;;;;7.50;100.00;99396.13;5012752;28;20584;-85
2023/11/09 08:14:17;;;;;;;;;;;;;;;7.53;100.00;99400.94;5010222;28;19933;-84
2023/11/09 08:16:45;;;;;;;;;;;;;;;7.50;100.00;99393.41;4993469;28;19921;-87
2023/11/09 08:19:18;;;;;;;;;;;;;;;7.53;100.00;99390.13;4994649;28;19928;-85
2023/11/09 08:21:47;;;;;;;;;;;;;;;7.55;100.00;99385.19;5007366;28;19921;-82
2023/11/09 08:24:16;;;;;;;;;;;;;;;7.51;100.00;99386.09;4988413;28;19931;-87
2023/11/09 08:26:50;;;;;;;;;;;;;;;7.56;100.00;99388.72;5010216;28;19929;-84
2023/11/09 08:29:18;;;;;;;;;;;;;;;7.58;100.00;99368.38;4994832;28;20293;-82
2023/11/09 08:31:47;;;;;;;;;;;;;;;7.58;100.00;99392.75;5010511;28;20469;-85
2023/11/09 08:34:17;;;;;;;;;;;;;;;7.59;100.00;99393.56;5009262;28;20584;-82
2023/11/09 08:36:45;;;;;;;;;;;;;;;7.72;100.00;99390.13;5010481;28;19932;-84
2023/11/09 08:39:18;;;;;;;;;;;;;;;7.63;100.00;99397.28;5011388;28;20260;-84
2023/11/09 08:41:51;;;;;;;;;;;;;;;7.66;100.00;99394.00;5015341;28;19921;-83
2023/11/09 08:44:20;;;;;;;;;;;;;;;7.74;100.00;99392.53;5007394;28;19928;-81
2023/11/09 08:46:53;;;;;;;;;;;;;;;7.73;100.00;99386.31;4991917;28;19933;-83
2023/11/09 08:49:22;;;;;;;;;;;;;;;7.70;100.00;99395.03;4960940;28;19940;-82
2023/11/09 08:51:50;;;;;;;;;;;;;;;7.70;100.00;99397.72;4999490;28;20897;-87
2023/11/09 08:54:20;;;;;;;;;;;;;;;7.70;100.00;99403.16;4973491;28;20586;-87
2023/11/09 08:56:49;;;;;;;;;;;;;;;7.72;100.00;99387.41;4989626;28;19930;-84
2023/11/09 08:59:17;;;;;;;;;;;;;;;7.71;100.00;99393.13;4975319;28;20307;-84
2023/11/09 09:01:52;;;;;;;;;;;;;;;7.71;100.00;99396.63;4974691;28;21091;-85
2023/11/09 09:04:21;;;;;;;;;;;;;;;7.72;100.00;99390.13;4989337;28;19929;-86
2023/11/09 09:06:49;;;;;;;;;;;;;;;7.80;100.00;99391.34;4972496;28;19960;-85
2023/11/09 09:09:24;;;;;;;;;;;;;;;7.73;100.00;99390.91;4989791;28;19936;-86
2023/11/09 09:11:52;;;;;;;;;;;;;;;7.75;100.00;99380.63;4991345;28;20555;-84
2023/11/09 09:14:21;;;;;;;;;;;;;;;7.75;100.00;99377.91;4990889;28;19929;-85
2023/11/09 09:16:49;;;;;;;;;;;;;;;7.72;100.00;99375.75;4993561;28;19929;-86
2023/11/09 09:19:17;;;;;;;;;;;;;;;7.75;100.00;99386.03;4969609;28;19929;-86
2023/11/09 09:21:45;;;;;;;;;;;;;;;7.79;100.00;99385.16;4993987;28;19929;-85
2023/11/09 09:24:14;;;;;;;;;;;;;;;7.79;100.00;99382.44;4987600;28;20500;-85
2023/11/09 09:26:48;;;;;;;;;;;;;;;7.79;100.00;99379.72;4987346;28;19936;-87
2023/11/09 09:29:16;;;;;;;;;;;;;;;7.80;100.00;99386.75;4977205;28;19936;-85
2023/11/09 09:31:45;;;;;;;;;;;;;;;7.86;100.00;99383.97;4987647;28;19937;-86
2023/11/09 09:34:21;;;;;;;;;;;;;;;7.82;100.00;99378.34;4985120;28;19930;-86
2023/11/09 09:36:50;;;;;;;;;;;;;;;7.86;100.00;99389.38;4973229;28;20425;-85
2023/11/09 09:39:18;;;;;;;;;;;;;;;7.86;100.00;99381.25;4993363;28;19929;-84
2023/11/09 09:41:52;;;;;;;;;;;;;;;7.86;100.00;99379.38;4991975;28;20287;-86
2023/11/09 09:44:26;;;;;;;;;;;;;;;7.87;100.00;99372.84;4991926;28;19929;-85
2023/11/09 09:46:56;;;;;;;;;;;;;;;7.90;100.00;99393.94;5000435;28;19929;-86
2023/11/09 09:49:29;;;;;;;;;;;;;;;7.95;100.00;99388.41;4953879;28;19929;-84
2023/11/09 09:52:03;;;;;;;;;;;;;;;7.96;100.00;99389.25;4993528;28;19941;-85
2023/11/09 09:54:39;;;;;;;;;;;;;;;7.96;100.00;99394.66;4980679;28;19929;-83
2023/11/09 09:57:14;;;;;;;;;;;;;;;7.92;100.00;99386.31;4991246;28;20016;-84
2023/11/09 09:59:42;;;;;;;;;;;;;;;7.95;100.00;99399.25;4988963;28;19941;-84
2023/11/09 10:02:18;;;;;;;;;;;;;;;7.98;100.00;99393.28;4991786;28;19966;-87
2023/11/09 10:04:51;;;;;;;;;;;;;;;7.99;100.00;99402.19;4989778;28;19940;-86
2023/11/09 10:07:24;;;;;;;;;;;;;;;7.93;100.00;99403.38;4972562;28;19929;-83
2023/11/09 10:09:53;;;;;;;;;;;;;;;7.95;100.00;99407.38;4990581;28;19937;-84
2023/11/09 10:12:22;;;;;;;;;;;;;;;8.03;100.00;99394.28;4991694;28;20514;-84
2023/11/09 10:14:50;;;;;;;;;;;;;;;8.04;100.00;99390.47;4991239;28;20393;-86
2023/11/09 10:17:23;;;;;;;;;;;;;;;7.98;100.00;99400.56;4974493;28;19936;-86
2023/11/09 10:19:52;;;;;;;;;;;;;;;8.00;100.00;99395.69;4973871;28;20587;-85
2023/11/09 10:22:20;;;;;;;;;;;;;;;8.02;100.00;99404.31;4976915;28;20783;-85
2023/11/09 10:24:50;;;;;;;;;;;;;;;8.00;100.00;99395.69;4993929;28;19929;-85
2023/11/09 10:27:20;;;;;;;;;;;;;;;8.03;100.00;99386.16;4973216;28;20611;-86
2023/11/09 10:29:51;;;;;;;;;;;;;;;7.99;100.00;99383.22;4990705;28;19930;-83
2023/11/09 10:32:24;;;;;;;;;;;;;;;8.00;100.00;99390.25;4992983;28;19921;-83
2023/11/09 10:34:57;;;;;;;;;;;;;;;8.10;100.00;99381.16;4987719;28;19944;-84
2023/11/09 10:37:33;;;;;;;;;;;;;;;8.10;100.00;99386.59;4988753;28;19933;-83
2023/11/09 10:40:04;;;;;;;;;;;;;;;8.11;100.00;99370.03;4980383;28;20520;-83
2023/11/09 10:42:33;;;;;;;;;;;;;;;8.11;100.00;99367.31;4974445;28;19929;-84
2023/11/09 10:45:03;;;;;;;;;;;;;;;8.17;100.00;99373.47;4994395;28;19936;-86
2023/11/09 10:47:37;;;;;;;;;;;;;;;8.13;100.00;99370.56;4990991;28;19929;-84
2023/11/09 10:50:13;;;;;;;;;;;;;;;8.17;100.00;99373.47;4983507;28;20408;-86
2023/11/09 10:52:43;;;;;;;;;;;;;;;8.16;100.00;99374.56;4970719;28;19936;-85
2023/11/09 10:55:16;;;;;;;;;;;;;;;8.15;100.00;99364.84;4976372;28;19929;-84
2023/11/09 10:57:47;;;;;;;;;;;;;;;8.15;100.00;99362.91;4994561;28;20595;-84
2023/11/09 11:00:31;;;;;;;;;;;;;;;8.17;100.00;99363.44;4982249;28;19929;-84
2023/11/09 11:03:04;;;;;;;;;;;;;;;8.18;100.00;99359.63;4990748;28;19937;-84
2023/11/09 11:05:33;;;;;;;;;;;;;;;8.18;100.00;99353.41;4987803;28;19928;-84
2023/11/09 11:08:05;;;;;;;;;;;;;;;8.22;100.00;99361.75;4989250;28;19930;-86
2023/11/09 11:10:35;;;;;;;;;;;;;;;8.24;100.00;99352.19;4995211;28;20696;-86
2023/11/09 11:13:09;;;;;;;;;;;;;;;8.24;100.00;99357.63;4987847;28;20504;-86
2023/11/09 11:15:48;;;;;;;;;;;;;;;8.25;100.00;99361.94;4985176;28;19929;-87
2023/11/09 11:18:21;;;;;;;;;;;;;;;8.29;100.00;99357.53;4997615;28;19936;-85
2023/11/09 11:20:55;;;;;;;;;;;;;;;8.26;100.00;99355.44;4991263;28;19929;-86
2023/11/09 11:23:43;;;;;;;;;;;;;;;8.32;100.00;99348.03;4992025;28;19929;-84
2023/11/09 11:26:14;;;;;;;;;;;;;;;8.30;100.00;99356.44;4993477;28;19940;-85
2023/11/09 11:28:47;;;;;;;;;;;;;;;8.36;100.00;99357.16;4973120;28;19930;-85
2023/11/09 11:31:20;;;;;;;;;;;;;;;8.38;100.00;99346.81;4990492;28;19936;-85
2023/11/09 11:33:49;;;;;;;;;;;;;;;8.36;100.00;99354.44;4988828;28;19929;-85
2023/11/09 11:36:26;;;;;;;;;;;;;;;8.39;100.00;99351.13;4987253;28;19929;-87
2023/11/09 11:39:09;;;;;;;;;;;;;;;8.37;100.00;99355.25;4986921;28;19929;-85
2023/11/09 11:41:39;;;;;;;;;;;;;;;8.37;100.00;99358.78;4987209;28;19936;-85
2023/11/09 11:44:12;;;;;;;;;;;;;;;8.45;100.00;99354.59;4976043;28;20400;-83
2023/11/09 11:46:47;;;;;;;;;;;;;;;8.43;100.00;99345.94;4996416;28;19936;-85
2023/11/09 11:49:19;;;;;;;;;;;;;;;8.46;100.00;99346.16;4950321;28;19929;-85
2023/11/09 11:51:55;;;;;;;;;;;;;;;8.46;100.00;99353.50;4990642;28;19930;-84
2023/11/09 11:54:29;;;;;;;;;;;;;;;8.49;100.00;99342.06;4989127;28;20821;-86
2023/11/09 11:56:57;;;;;;;;;;;;;;;8.50;100.00;99346.38;4988252;28;19952;-85
2023/11/09 11:59:25;;;;;;;;;;;;;;;8.48;100.00;99349.38;4976822;28;19932;-86
2023/11/09 12:01:55;;;;;;;;;;;;;;;8.46;100.00;99353.50;4975791;28;22564;-84
2023/11/09 12:04:23;;;;;;;;;;;;;;;8.49;100.00;99339.34;4971341;28;19929;-87
2023/11/09 12:06:56;;;;;;;;;;;;;;;8.54;100.00;99338.47;4984791;28;19929;-84
2023/11/09 12:09:29;;;;;;;;;;;;;;;8.51;100.00;99345.28;4987417;28;19936;-86
2023/11/09 12:12:02;;;;;;;;;;;;;;;8.47;100.00;99346.97;4976239;28;19929;-87
2023/11/09 12:14:30;;;;;;;;;;;;;;;8.45;100.00;99347.28;4986137;28;19930;-83
2023/11/09 12:17:00;;;;;;;;;;;;;;;8.48;100.00;99340.47;4985652;28;19929;-84
2023/11/09 12:19:33;;;;;;;;;;;;;;;8.56;100.00;99336.25;4969185;28;19929;-84
2023/11/09 12:22:02;;;;;;;;;;;;;;;8.55;100.00;99330.03;4972343;28;19930;-86
2023/11/09 12:24:35;;;;;;;;;;;;;;;8.52;100.00;99330.63;4989403;28;19929;-87
2023/11/09 12:27:05;;;;;;;;;;;;;;;8.54;100.00;99338.47;4989671;28;19936;-85
2023/11/09 12:29:35;;;;;;;;;;;;;;;8.58;100.00;99337.56;4987607;28;19930;-86
2023/11/09 12:32:06;;;;;;;;;;;;;;;8.61;100.00;99333.44;4977854;28;19929;-87
2023/11/09 12:34:40;;;;;;;;;;;;;;;8.72;100.00;99331.34;4990087;28;19929;-85
2023/11/09 12:37:12;;;;;;;;;;;;;;;8.73;100.00;99332.94;4970668;28;20675;-87
2023/11/09 12:39:42;;;;;;;;;;;;;;;8.78;100.00;99324.72;4990638;28;19925;-84
2023/11/09 12:42:23;;;;;;;;;;;;;;;8.81;100.00;99337.66;4990247;28;19930;-84
2023/11/09 12:44:52;;;;;;;;;;;;;;;8.82;100.00;99329.25;4990802;28;19929;-85
2023/11/09 12:47:21;;;;;;;;;;;;;;;8.92;100.00;99325.53;4989191;28;19940;-86
2023/11/09 12:49:52;;;;;;;;;;;;;;;8.93;100.00;99327.13;4961991;28;19929;-85
2023/11/09 12:52:25;;;;;;;;;;;;;;;8.93;100.00;99327.13;4989607;28;19936;-87
2023/11/09 12:55:06;;;;;;;;;;;;;;;8.98;100.00;99328.94;4993529;28;19930;-87
2023/11/09 12:57:41;;;;;;;;;;;;;;;9.01;100.00;99322.91;4982960;28;19929;-84
2023/11/09 13:00:23;;;;;;;;;;;;;;;9.03;100.00;99320.66;4985593;28;20712;-83
2023/11/09 13:02:56;;;;;;;;;;;;;;;8.97;100.00;99311.03;4992409;28;20575;-83
2023/11/09 13:05:32;;;;;;;;;;;;;;;9.07;100.00;99318.97;4990404;28;19930;-83
2023/11/09 13:08:07;;;;;;;;;;;;;;;8.97;100.00;99317.25;4986878;28;19930;-84
2023/11/09 13:10:36;;;;;;;;;;;;;;;9.00;100.00;99318.56;4985413;28;19929;-86
2023/11/09 13:13:20;;;;;;;;;;;;;;;8.99;100.00;99323.22;4972177;28;19983;-85
2023/11/09 13:15:48;;;;;;;;;;;;;;;9.06;100.00;99316.56;4973003;28;20598;-86